Tripler Army Medical Center, HI

4:47 PM HST on March 05, 2015 (GMT -1000)
Pacific Heights | Change Station
CLOSE
Current Station
Personal Weather Station
Location: Honolulu, HI
Elevation: 528 ft
Nearby Weather Stations

Elev 528 ft 21.33 °N, 157.84 °W | Updated 17 seconds ago

Scattered Clouds
Scattered Clouds
68.2 °F
Feels Like 68.2 °F
N
8.1
Wind Variable Wind from East
Gusts 18.0 mph

Today
High -- | Low -- °F
--% Chance of Precip.
Yesterday
High -- | Low -- °F
Precip. -- in
6:48 AM 6:37 PM
Full, 100% visible
Pressure 29.88 in
Visibility 10.0 miles
Clouds Few 3000 ft
Scattered Clouds 5000 ft
Scattered Clouds 7500 ft
Dew Point 62 °F
Humidity 81%
Rainfall in
Snow Depth Not available.
UV 3 out of 12
Pollen Not available.
Air Quality Not available.
Flu Activity Not available.
METAR PHNL 060153Z 02012G20KT 10SM FEW030 SCT050 SCT075 23/16 A2988 RMK AO2 SLP118 T02280161 $

More Conditions Fewer Conditions

Pressure 29.88 in
Visibility 10.0 miles
Clouds Few 3000 ft
Scattered Clouds 5000 ft
Scattered Clouds 7500 ft
Dew Point 62 °F
Humidity 81%
Rainfall in
Snow Depth Not available.
UV 3 out of 12
Pollen Not available.
Air Quality Not available.
Flu Activity Not available.
METAR PHNL 060153Z 02012G20KT 10SM FEW030 SCT050 SCT075 23/16 A2988 RMK AO2 SLP118 T02280161 $

More Conditions Fewer Conditions

10-Day Weather Forecast

Almanac

Astronomy

Mar. 05, 2015 Rise Set
Actual Time
Civil Twilight
Nautical Twilight
Astronomical Twilight
Moon
Length of Visible Light
Length of Day
Tomorrow will be .
, % of the Moon is Illuminated

Today's Extremes

State Highs State Lows

Community

WunderPhotos

Upload Photos

1,803,134 photos uploaded!

WunderBlogs® & News

Nearby

Air Quality

  Air Quality AQ Index Pollutant
Not available.

Snow Depth

Station Depth Elevation

Earthquake Activity

City Distance Mag. Time & Date
Minimum magnitude displayed is 2.5.

Coastal Water Temperatures

Place Temperature

Nearby Weather Stations